HOURLY OBS INDEX

059

Mid North Coast

COFFS HARBOUR AIRPORT

Site: 059151
Alt: 3.5m
km of


  Time     Wind        Temp  DP   Baro     Rain since   Rain past  Vis(m), Cloud(base in m), Weather
  local        km/h                         9am  last   hr   10m    
Mon 21:00    N 15/ 19  23.2 19.4  1016.3    0.0   0.0   0.0   0.0   10000 
Mon 21:00    N 15/ 19  23.2 19.4  1016.3    0.0   0.0  ----   0.0   10000 
Mon 21:30    N 13/ 17  22.9 18.9  1016.5    0.0   0.0   0.0   0.0   10000 
Mon 22:00    N 13/ 17  23.0 19.2  1016.6    0.0   0.0   0.0   0.0   10000 
Mon 22:30    N 13/ 17  23.0 19.2  1016.7    0.0   0.0   0.0   0.0   10000 
Mon 23:00    N 13/ 17  22.7 19.1  1016.7    0.0   0.0   0.0   0.0   10000 
Mon 23:30    N 13/ 17  22.3 18.7  1016.5    0.0   0.0   0.0   0.0   10000 
Tue 00:00    N  9/ 13  22.4 19.0  1016.4    0.0   0.0   0.0   0.0   10000|SC3750 
Tue 00:30  NNW 11/ 17  21.8 18.6  1016.5    0.0   0.0   0.0   0.0   10000|BR 870 BR3750 
Tue 01:00    N 13/ 17  22.4 19.2  1016.0    0.0   0.0   0.0   0.0   10000|SC 870 OC3750 
Tue 01:30   NW 11/ 15  21.3 18.1  1015.8    0.0   0.0   0.0   0.0   10000 
Tue 02:00  WNW 11/ 13  20.7 18.1  1015.9    0.0   0.0   0.0   0.0   10000|SC 900 SC3600 
Tue 02:00  WNW 11/ 13  20.7 18.1  1015.9    0.0   0.0  ----   0.0   10000|SC 900 SC3600 

KEMPSEY AIRPORT AWS

Site: 059007
Alt: 13.0m
6km WNW of KEMPSEY


  Time     Wind        Temp  DP   Baro     Rain since   Rain past  Vis(m), Cloud(base in m), Weather
  local        km/h                         9am  last   hr   10m    
Mon 21:00    E  7/  7  21.9 18.7  1016.4    0.0   0.0   0.0   0.0   ----- 
Mon 21:00    E  7/  7  21.9 18.7  1016.4    0.0   0.0  ----   0.0   ----- 
Mon 21:30  ENE  7/  9  21.0 18.0  1016.4    0.0   0.0   0.0   0.0   ----- 
Mon 22:00    E  6/  9  20.4 18.0  1016.5    0.0   0.0   0.0   0.0   ----- 
Mon 22:30    C  0/  0  20.0 18.1  1016.6    0.0   0.0   0.0   0.0   ----- 
Mon 23:00    C  0/  0  19.2 17.2  1016.6    0.0   0.0   0.0   0.0   ----- 
Mon 23:30    C  0/  0  18.0 15.8  1016.2    0.0   0.0   0.0   0.0   ----- 
Tue 00:00    W  4/ 11  18.1 16.6  1016.6    0.0   0.0   0.0   0.0   ----- 
Tue 00:30  WSW  9/ 11  18.7 17.4  1016.3    0.0   0.0   0.0   0.0   ----- 
Tue 01:00    C  0/  0  18.1 16.8  1015.8    0.0   0.0   0.0   0.0   ----- 
Tue 01:30    W  4/  7  17.3 15.8  1015.6    0.0   0.0   0.0   0.0   ----- 
Tue 02:00  WNW  4/  6  17.7 16.4  1015.1    0.0   0.0   0.0   0.0   ----- 
Tue 02:00  WNW  4/  6  17.7 16.4  1015.1    0.0   0.0  ----   0.0   -----